Time;durP1;ratioP1;P1;durP2;ratioP2;P2;SDS_P1;SDS_P2;PMS_P1;PMS_P2;Temp;Humidity;BMP_temperature;BMP_pressure;BME280_temperature;BME280_humidity;BME280_pressure;Samples;Min_cycle;Max_cycle;Signal;HPM_P1;HPM_P2
2022/09/30 00:01:09;;;;;;;4.72;2.65;;;;;;;;;;5054142;28;20472;-79
2022/09/30 00:03:35;;;;;;;4.57;3.53;;;;;;;;;;5054223;28;20045;-79
2022/09/30 00:06:03;;;;;;;4.38;3.28;;;9.10;99.90;;;;;;5036511;28;20570;-77
2022/09/30 00:08:30;;;;;;;4.20;3.58;;;;;;;;;;5036243;28;20490;-79
2022/09/30 00:11:00;;;;;;;6.20;3.10;;;;;;;;;;5036131;28;20132;-79
2022/09/30 00:13:26;;;;;;;4.40;2.97;;;;;;;;;;5054086;28;20041;-79
2022/09/30 00:15:52;;;;;;;3.25;2.95;;;;;;;;;;5019337;28;20056;-78
2022/09/30 00:18:18;;;;;;;6.70;3.75;;;;;;;;;;5036029;28;20060;-79
2022/09/30 00:20:44;;;;;;;3.03;2.72;;;;;;;;;;5019370;28;20057;-79
2022/09/30 00:23:10;;;;;;;3.63;3.10;;;;;;;;;;5019441;28;20052;-80
2022/09/30 00:25:36;;;;;;;4.00;3.70;;;;;;;;;;5019266;28;20045;-79
2022/09/30 00:28:02;;;;;;;3.22;2.92;;;;;;;;;;5019337;28;20531;-80
2022/09/30 00:30:28;;;;;;;3.28;2.95;;;;;;;;;;5035784;28;20509;-78
2022/09/30 00:32:54;;;;;;;4.43;2.90;;;;;;;;;;5019172;28;20120;-80
2022/09/30 00:35:21;;;;;;;7.18;2.42;;;;;;;;;;5019041;28;20422;-79
2022/09/30 00:37:47;;;;;;;2.50;2.30;;;;;;;;;;5019240;28;20103;-79
2022/09/30 00:40:13;;;;;;;1.90;1.80;;;;;;;;;;5035274;28;20509;-81
2022/09/30 00:42:42;;;;;;;5.93;1.80;;;;;;;;;;5035383;28;20084;-81
2022/09/30 00:45:10;;;;;;;2.53;2.15;;;;;;;;;;5035443;28;20045;-81
2022/09/30 00:47:36;;;;;;;4.22;2.92;;;;;;;;;;5018763;28;20044;-83
2022/09/30 00:50:06;;;;;;;4.05;2.47;;;;;;;;;;5035284;28;20041;-81
2022/09/30 00:52:32;;;;;;;2.17;1.98;;;;;;;;;;5035322;28;20452;-82
2022/09/30 00:55:01;;;;;;;3.10;2.40;;;;;;;;;;5018895;28;20064;-81
2022/09/30 00:57:27;;;;;;;2.30;2.10;;;;;;;;;;5018650;28;20072;-81
2022/09/30 00:59:53;;;;;;;2.65;2.28;;;;;;;;;;5018745;28;20045;-82
2022/09/30 01:02:20;;;;;;;3.33;2.95;;;;;;;;;;5035215;28;20405;-82
2022/09/30 01:04:46;;;;;;;3.40;2.80;;;;;;;;;;5018595;28;20081;-81
2022/09/30 01:07:13;;;;;;;4.55;3.20;;;;;;;;;;5018476;28;20052;-81
2022/09/30 01:09:40;;;;;;;3.80;2.70;;;;;;;;;;5035019;28;20041;-81
2022/09/30 01:12:09;;;;;;;2.80;2.42;;;;;;;;;;5034476;28;20095;-81
2022/09/30 01:14:36;;;;;;;2.80;1.88;;;;;;;;;;5034800;28;20628;-81
2022/09/30 01:17:19;;;;;;;3.80;2.78;;;;;;;;;;5035072;28;20056;-81
2022/09/30 01:19:57;;;;;;;2.50;2.30;;;;;;;;;;5002051;28;20052;-81
2022/09/30 01:22:22;;;;;;;7.85;2.58;;;;;;;;;;5034869;28;20502;-81
2022/09/30 01:24:51;;;;;;;9.55;2.83;;;;;;;;;;5018175;28;20052;-80
2022/09/30 01:27:30;;;;;;;2.63;2.42;;;;;;;;;;5018077;28;20072;-81
2022/09/30 01:30:14;;;;;;;2.80;2.55;;;;;;;;;;5034615;28;20045;-81
2022/09/30 01:32:49;;;;;;;;;;;8.50;99.90;;;;;;5018480;28;20501;-80
2022/09/30 01:35:33;;;;;;;;;;;8.30;99.90;;;;;;5018548;28;20304;-82
2022/09/30 01:38:28;;;;;;;3.15;2.85;;;8.20;99.90;;;;;;5017870;28;19920;-81
2022/09/30 01:40:59;;;;;;;;;;;8.20;99.90;;;;;;5018363;28;20041;-82
2022/09/30 01:43:35;;;;;;;2.75;2.55;;;8.40;99.90;;;;;;5034203;28;19921;-83
2022/09/30 01:46:26;;;;;;;3.80;2.88;;;8.10;99.90;;;;;;5034512;28;20037;-83
2022/09/30 01:49:10;;;;;;;2.40;2.20;;;;;;;;;;5034263;28;20053;-83
2022/09/30 01:51:49;;;;;;;2.92;2.22;;;8.30;99.90;;;;;;5017813;28;20060;-79
2022/09/30 01:54:32;;;;;;;3.40;2.30;;;8.30;99.90;;;;;;5034335;28;20048;-82
2022/09/30 01:57:09;;;;;;;2.40;2.20;;;;;;;;;;5034091;28;20056;-76
2022/09/30 01:59:35;;;;;;;2.40;2.20;;;;;;;;;;5033918;28;20056;-79
2022/09/30 02:02:04;;;;;;;3.42;2.42;;;;;;;;;;5034025;28;20041;-82
2022/09/30 02:04:45;;;;;;;2.60;2.40;;;;;;;;;;5001463;28;20053;-77
2022/09/30 02:07:28;;;;;;;2.42;2.10;;;;;;;;;;5017648;28;20127;-82
2022/09/30 02:09:57;;;;;;;2.58;2.38;;;;;;;;;;5033908;28;20141;-82
2022/09/30 02:12:25;;;;;;;3.20;2.78;;;;;;;;;;5051673;28;20052;-82
2022/09/30 02:15:01;;;;;;;2.95;2.53;;;;;;;;;;5033076;28;20045;-83
2022/09/30 02:17:41;;;;;;;3.40;2.70;;;;;;;;;;5034087;28;20127;-83
2022/09/30 02:20:15;;;;;;;3.72;2.45;;;8.30;99.90;;;;;;5033915;28;20513;-82
2022/09/30 02:22:49;;;;;;;3.38;2.33;;;;;;;;;;5051888;28;20041;-82
2022/09/30 02:25:19;;;;;;;3.42;2.80;;;;;;;;;;5051877;28;20059;-83
2022/09/30 02:27:48;;;;;;;2.58;2.38;;;;;;;;;;5033962;28;20123;-83
2022/09/30 02:30:14;;;;;;;2.90;2.67;;;;;;;;;;5051234;28;20502;-81
2022/09/30 02:32:44;;;;;;;2.55;2.15;;;;;;;;;;5033627;28;20045;-83
2022/09/30 02:35:14;;;;;;;3.05;2.75;;;;;;;;;;5033808;28;20498;-83
2022/09/30 02:37:47;;;;;;;3.97;2.85;;;;;;;;;;5033462;28;20454;-79
2022/09/30 02:40:18;;;;;;;2.90;2.60;;;8.20;99.90;;;;;;5033622;28;20049;-79
2022/09/30 02:42:45;;;;;;;2.90;2.60;;;;;;;;;;5051542;28;20041;-79
2022/09/30 02:45:18;;;;;;;10.80;2.83;;;8.20;99.90;;;;;;5050995;28;20118;-78
2022/09/30 02:47:53;;;;;;;3.03;2.83;;;;;;;;;;5033532;28;20052;-78
2022/09/30 02:50:25;;;;;;;4.15;3.13;;;8.50;99.90;;;;;;5051642;28;20045;-79
2022/09/30 02:52:54;;;;;;;2.67;2.38;;;;;;;;;;5017300;28;20107;-79
2022/09/30 02:55:29;;;;;;;4.43;3.00;;;;;;;;;;5033472;28;20497;-79
2022/09/30 02:58:10;;;;;;;2.47;2.28;;;;;;;;;;5033824;28;20049;-79
2022/09/30 03:00:36;;;;;;;2.40;2.20;;;;;;;;;;5016483;28;20052;-78
2022/09/30 03:03:12;;;;;;;3.40;2.70;;;;;;;;;;5016915;28;20047;-78
2022/09/30 03:05:38;;;;;;;3.58;2.40;;;;;;;;;;5033551;28;20045;-79
2022/09/30 03:08:04;;;;;;;2.10;1.90;;;;;;;;;;5033219;28;20041;-79
2022/09/30 03:10:30;;;;;;;4.18;1.80;;;;;;;;;;5033299;28;20044;-78
2022/09/30 03:13:34;;;;;;;4.15;1.95;;;8.30;99.90;;;;;;5033567;28;20063;-76
2022/09/30 03:16:29;;;;;;;1.98;1.77;;;8.40;99.90;;;;;;4918792;29;20075;-78
2022/09/30 03:18:58;;;;;;;1.85;1.75;;;;;;;;;;4933675;29;20059;-79
2022/09/30 03:21:29;;;;;;;3.30;2.05;;;;;;;;;;4935301;29;20134;-77
2022/09/30 03:24:11;;;;;;;2.10;1.92;;;;;;;;;;4935040;29;20138;-81
2022/09/30 03:27:15;;;;;;;1.95;1.85;;;8.00;99.90;;;;;;4935109;29;20063;-81
2022/09/30 03:30:02;;;;;;;1.80;1.70;;;8.20;99.90;;;;;;4938697;29;20134;-84
2022/09/30 03:32:31;;;;;;;2.17;2.08;;;;;;;;;;4938156;29;20142;-84
2022/09/30 03:35:02;;;;;;;2.38;2.17;;;;;;;;;;4938329;29;20055;-81
2022/09/30 03:37:58;;;;;;;2.60;2.40;;;;;;;;;;4922381;28;20142;-83
2022/09/30 03:40:36;;;;;;;4.05;2.95;;;8.10;99.90;;;;;;4866208;29;20136;-81
2022/09/30 03:43:09;;;;;;;2.70;2.50;;;;;;;;;;4881570;29;20084;-82
2022/09/30 03:45:41;;;;;;;2.72;2.53;;;;;;;;;;4865972;29;20064;-83
2022/09/30 03:48:08;;;;;;;2.97;2.78;;;;;;;;;;4865900;29;20508;-82
2022/09/30 03:50:36;;;;;;;2.75;2.53;;;;;;;;;;4901473;29;20148;-82
2022/09/30 03:53:03;;;;;;;4.47;2.95;;;;;;;;;;4919195;29;20051;-82
2022/09/30 03:55:32;;;;;;;2.97;2.78;;;7.90;99.90;;;;;;4919148;29;20130;-81
2022/09/30 03:57:58;;;;;;;4.63;2.80;;;;;;;;;;4934848;29;20044;-81
2022/09/30 04:00:24;;;;;;;3.35;3.05;;;;;;;;;;4903473;29;20047;-82
2022/09/30 04:02:50;;;;;;;3.85;3.55;;;;;;;;;;4918946;29;20101;-81
2022/09/30 04:05:16;;;;;;;4.32;3.40;;;;;;;;;;4934726;29;20081;-81
2022/09/30 04:07:42;;;;;;;5.65;3.13;;;;;;;;;;4918491;29;20043;-80
2022/09/30 04:10:08;;;;;;;2.83;2.63;;;;;;;;;;4918955;29;20059;-81
2022/09/30 04:12:35;;;;;;;3.15;2.85;;;;;;;;;;4934595;29;20062;-77
2022/09/30 04:15:00;;;;;;;4.05;2.75;;;;;;;;;;4902773;29;20048;-76
2022/09/30 04:17:26;;;;;;;3.90;3.60;;;;;;;;;;5012026;28;20064;-76
2022/09/30 04:19:52;;;;;;;3.80;3.28;;;;;;;;;;5034044;28;20045;-76
2022/09/30 04:22:19;;;;;;;3.15;2.85;;;;;;;;;;5033864;28;20407;-79
2022/09/30 04:24:46;;;;;;;5.18;3.90;;;;;;;;;;5033585;28;20120;-77
2022/09/30 04:27:12;;;;;;;4.45;4.05;;;;;;;;;;5033551;28;20054;-75
2022/09/30 04:29:38;;;;;;;3.40;3.10;;;;;;;;;;5016252;28;20041;-76
2022/09/30 04:32:04;;;;;;;3.75;3.45;;;;;;;;;;5015862;28;20462;-76
2022/09/30 04:34:30;;;;;;;3.85;3.55;;;;;;;;;;5033362;28;20053;-76
2022/09/30 04:36:56;;;;;;;4.88;4.35;;;;;;;;;;5035222;28;20444;-77
2022/09/30 04:39:22;;;;;;;4.65;3.63;;;;;;;;;;5034764;28;20107;-75
2022/09/30 04:41:49;;;;;;;7.50;4.70;;;;;;;;;;5035532;28;20061;-76
2022/09/30 04:44:15;;;;;;;4.47;4.07;;;;;;;;;;5035667;28;20059;-78
2022/09/30 04:46:42;;;;;;;5.05;4.55;;;;;;;;;;5018927;28;20044;-78
2022/09/30 04:49:08;;;;;;;4.60;4.18;;;;;;;;;;5035096;28;20130;-78
2022/09/30 04:51:35;;;;;;;5.57;4.85;;;;;;;;;;5035322;28;20088;-78
2022/09/30 04:54:01;;;;;;;5.38;4.70;;;;;;;;;;5053026;28;20056;-78
2022/09/30 04:56:27;;;;;;;4.88;4.45;;;;;;;;;;5035540;28;20052;-77
2022/09/30 04:58:53;;;;;;;5.13;4.60;;;;;;;;;;5053287;28;20393;-78
2022/09/30 05:01:20;;;;;;;5.35;4.85;;;;;;;;;;5035000;28;20044;-76
2022/09/30 05:03:46;;;;;;;5.63;4.57;;;;;;;;;;5018475;28;20041;-78
2022/09/30 05:06:13;;;;;;;5.35;4.65;;;;;;;;;;5018311;28;20413;-77
2022/09/30 05:08:42;;;;;;;4.78;4.38;;;;;;;;;;5018407;28;20087;-76
2022/09/30 05:11:12;;;;;;;4.93;4.43;;;7.70;99.90;;;;;;5052820;28;20080;-77
2022/09/30 05:13:39;;;;;;;4.85;4.35;;;7.60;99.90;;;;;;5034870;28;20050;-77
2022/09/30 05:16:06;;;;;;;4.78;4.38;;;7.40;99.90;;;;;;5034761;28;20053;-76
2022/09/30 05:18:33;;;;;;;5.00;4.50;;;;;;;;;;5035002;28;20109;-77
2022/09/30 05:20:59;;;;;;;5.03;4.25;;;;;;;;;;5017931;28;20482;-79
2022/09/30 05:23:27;;;;;;;5.13;4.43;;;;;;;;;;5034988;28;20405;-79
2022/09/30 05:25:53;;;;;;;10.40;5.40;;;;;;;;;;5035100;28;20041;-78
2022/09/30 05:28:19;;;;;;;5.85;5.18;;;;;;;;;;5018050;28;20434;-78
2022/09/30 05:30:49;;;;;;;6.28;5.57;;;;;;;;;;5018490;28;20061;-78
2022/09/30 05:33:15;;;;;;;7.63;5.82;;;;;;;;;;5018316;28;20452;-78
2022/09/30 05:35:42;;;;;;;9.65;6.80;;;7.30;99.90;;;;;;5017683;28;20065;-78
2022/09/30 05:38:09;;;;;;;6.13;5.53;;;;;;;;;;5017903;28;20045;-78
2022/09/30 05:40:38;;;;;;;5.97;5.38;;;;;;;;;;5034512;28;20182;-77
2022/09/30 05:43:05;;;;;;;5.68;5.07;;;;;;;;;;5034457;28;20052;-78
2022/09/30 05:45:32;;;;;;;7.28;5.20;;;;;;;;;;5034776;28;20590;-77
2022/09/30 05:47:58;;;;;;;10.75;5.25;;;;;;;;;;5034805;28;20044;-77
2022/09/30 05:50:24;;;;;;;7.60;5.75;;;;;;;;;;5017276;28;20048;-77
2022/09/30 05:52:51;;;;;;;6.95;5.78;;;;;;;;;;5034407;28;20040;-79
2022/09/30 05:55:17;;;;;;;6.78;5.90;;;;;;;;;;5034422;28;20106;-78
2022/09/30 05:57:46;;;;;;;9.80;5.95;;;;;;;;;;5034182;28;20551;-77
2022/09/30 06:00:13;;;;;;;8.07;5.72;;;;;;;;;;5034204;28;20118;-78
2022/09/30 06:02:40;;;;;;;6.30;5.38;;;;;;;;;;5034344;28;20037;-83
2022/09/30 06:05:07;;;;;;;6.20;5.60;;;;;;;;;;5035191;28;20091;-80
2022/09/30 06:07:33;;;;;;;8.43;5.32;;;;;;;;;;5033604;28;20041;-80
2022/09/30 06:10:00;;;;;;;7.38;5.90;;;;;;;;;;5034277;28;20402;-81
2022/09/30 06:12:27;;;;;;;6.20;5.05;;;;;;;;;;5034161;28;20037;-80
2022/09/30 06:14:54;;;;;;;7.07;5.32;;;;;;;;;;5018046;28;20049;-83
2022/09/30 06:17:20;;;;;;;5.38;4.72;;;;;;;;;;5034140;28;20564;-82
2022/09/30 06:19:48;;;;;;;7.25;5.95;;;;;;;;;;5034200;28;20044;-83
2022/09/30 06:22:17;;;;;;;8.45;5.75;;;;;;;;;;5017433;28;20048;-83
2022/09/30 06:24:46;;;;;;;6.70;5.15;;;;;;;;;;5034169;28;20140;-82
2022/09/30 06:27:15;;;;;;;7.00;5.90;;;;;;;;;;5029917;28;20032;-82
2022/09/30 06:29:41;;;;;;;5.25;4.75;;;;;;;;;;5017960;28;20401;-82
2022/09/30 06:32:07;;;;;;;5.60;4.88;;;;;;;;;;5017885;28;20064;-82
2022/09/30 06:34:33;;;;;;;6.70;4.95;;;;;;;;;;5033843;28;20053;-81
2022/09/30 06:37:00;;;;;;;8.10;5.13;;;;;;;;;;5033521;28;20060;-81
2022/09/30 06:39:26;;;;;;;5.32;4.82;;;;;;;;;;5033680;28;20128;-81
2022/09/30 06:41:53;;;;;;;5.18;4.50;;;;;;;;;;5034188;28;20059;-80
2022/09/30 06:44:19;;;;;;;5.45;4.05;;;;;;;;;;5017525;28;20048;-82
2022/09/30 06:46:45;;;;;;;5.38;4.85;;;;;;;;;;5017707;28;20060;-79
2022/09/30 06:49:11;;;;;;;4.47;4.07;;;;;;;;;;5033863;28;20091;-83
2022/09/30 06:51:37;;;;;;;6.07;4.60;;;;;;;;;;5037078;28;20048;-80
2022/09/30 06:54:03;;;;;;;5.07;4.57;;;;;;;;;;5052881;28;20087;-82
2022/09/30 06:56:30;;;;;;;4.65;4.25;;;;;;;;;;5021036;28;20116;-79
2022/09/30 06:58:57;;;;;;;4.88;4.47;;;;;;;;;;5053540;28;20045;-84
2022/09/30 07:01:23;;;;;;;4.85;4.35;;;;;;;;;;5053927;28;20044;-80
2022/09/30 07:03:56;;;;;;;5.65;4.80;;;;;;;;;;5040954;28;20131;-82
2022/09/30 07:06:23;;;;;;;7.83;5.00;;;;;;;;;;5040947;28;20044;-83
2022/09/30 07:08:50;;;;;;;5.25;4.75;;;;;;;;;;5056952;28;20511;-82
2022/09/30 07:11:16;;;;;;;5.50;4.70;;;;;;;;;;5040587;28;20037;-82
2022/09/30 07:13:44;;;;;;;5.57;5.07;;;;;;;;;;5057146;28;20118;-80
2022/09/30 07:16:12;;;;;;;5.18;4.63;;;;;;;;;;5041207;28;20500;-82
2022/09/30 07:18:38;;;;;;;4.93;4.43;;;;;;;;;;5057227;28;20051;-81
2022/09/30 07:21:04;;;;;;;4.32;3.92;;;;;;;;;;5045461;28;20405;-81
2022/09/30 07:23:31;;;;;;;8.85;4.85;;;;;;;;;;5020190;28;20048;-80
2022/09/30 07:26:01;;;;;;;4.97;4.47;;;8.30;99.90;;;;;;5037075;28;20123;-80
2022/09/30 07:28:30;;;;;;;4.88;4.38;;;;;;;;;;5020659;28;20041;-79
2022/09/30 07:30:58;;;;;;;8.60;4.68;;;;;;;;;;5020675;28;20059;-79
2022/09/30 07:33:28;;;;;;;5.25;4.38;;;8.60;99.90;;;;;;5036539;28;20049;-79
2022/09/30 07:35:56;;;;;;;4.63;4.15;;;8.60;99.90;;;;;;5036958;28;20068;-79
2022/09/30 07:38:24;;;;;;;5.05;4.40;;;8.80;99.90;;;;;;5036854;28;20083;-82
2022/09/30 07:40:59;;;;;;;4.25;3.85;;;;;;;;;;5036870;28;20568;-79
2022/09/30 07:43:33;;;;;;;5.72;4.38;;;;;;;;;;5020531;28;20045;-82
2022/09/30 07:46:07;;;;;;;4.18;3.78;;;;;;;;;;5020188;28;20055;-83
2022/09/30 07:51:03;;;;;;;4.88;4.18;;;;;;;;;;5036667;28;20056;-79
2022/09/30 07:53:32;;;;;;;6.85;4.10;;;;;;;;;;5020843;28;20102;-83
2022/09/30 07:56:03;;;;;;;4.88;4.45;;;9.20;99.90;;;;;;5036750;28;20052;-83
2022/09/30 07:58:29;;;;;;;6.57;3.78;;;;;;;;;;5036848;28;20041;-84
2022/09/30 08:00:56;;;;;;;4.93;4.18;;;;;;;;;;5036828;28;20061;-83
2022/09/30 08:03:22;;;;;;;4.88;4.07;;;;;;;;;;5019949;28;20064;-79
2022/09/30 08:05:48;;;;;;;4.45;4.03;;;;;;;;;;5020079;28;20084;-78
2022/09/30 08:08:16;;;;;;;5.47;4.72;;;;;;;;;;5020301;28;20037;-79
2022/09/30 08:10:42;;;;;;;4.93;4.43;;;;;;;;;;5019997;28;20416;-82
2022/09/30 08:13:08;;;;;;;9.45;4.72;;;;;;;;;;5019555;28;20048;-82
2022/09/30 08:15:35;;;;;;;7.03;4.70;;;;;;;;;;5036403;28;20505;-80
2022/09/30 08:18:01;;;;;;;6.30;5.15;;;;;;;;;;5036947;28;20041;-79
2022/09/30 08:20:28;;;;;;;7.20;5.95;;;;;;;;;;5035990;28;20037;-82
2022/09/30 08:22:54;;;;;;;5.75;5.15;;;10.40;99.90;;;;;;5019638;28;20405;-81
2022/09/30 08:25:21;;;;;;;6.93;5.13;;;10.40;99.90;;;;;;5035507;28;20053;-79
2022/09/30 08:27:48;;;;;;;9.23;6.10;;;;;;;;;;5019707;28;20406;-83
2022/09/30 08:30:16;;;;;;;6.93;5.07;;;;;;;;;;5019562;28;20107;-81
2022/09/30 08:32:42;;;;;;;7.47;5.45;;;;;;;;;;5035952;28;20109;-82
2022/09/30 08:35:08;;;;;;;6.40;5.22;;;;;;;;;;5026171;28;20131;-81
2022/09/30 08:37:34;;;;;;;7.90;5.70;;;;;;;;;;5052084;28;20048;-80
2022/09/30 08:40:01;;;;;;;7.72;5.07;;;;;;;;;;5039108;28;20079;-77
2022/09/30 08:42:51;;;;;;;6.68;5.40;;;11.30;99.90;;;;;;5039030;28;20131;-77
2022/09/30 08:45:45;;;;;;;7.65;5.00;;;11.40;99.90;;;;;;5038440;28;20127;-80
2022/09/30 08:48:24;;;;;;;6.50;4.97;;;11.70;99.90;;;;;;5053048;28;20119;-82
2022/09/30 08:51:05;;;;;;;7.38;5.53;;;;;;;;;;5039253;28;20051;-85
2022/09/30 08:53:35;;;;;;;9.23;5.22;;;;;;;;;;5056044;28;20125;-84
2022/09/30 08:56:03;;;;;;;7.75;5.07;;;11.70;99.90;;;;;;5039005;28;20093;-84
2022/09/30 08:58:35;;;;;;;7.05;5.43;;;;;;;;;;5054034;28;20066;-84
2022/09/30 09:01:07;;;;;;;7.47;5.97;;;;;;;;;;5055287;28;20045;-83
2022/09/30 09:03:33;;;;;;;5.57;4.97;;;;;;;;;;5038732;28;20044;-86
2022/09/30 09:06:06;;;;;;;6.82;5.47;;;;;;;;;;5072900;28;20430;-85
2022/09/30 09:08:32;;;;;;;10.30;7.10;;;;;;;;;;5053860;28;20531;-83
2022/09/30 09:11:14;;;;;;;9.10;6.25;;;;;;;;;;5055480;28;20040;-84
2022/09/30 09:13:59;;;;;;;8.25;5.78;;;12.30;99.90;;;;;;5038197;28;20506;-87
2022/09/30 09:16:39;;;;;;;8.18;5.72;;;;;;;;;;5038479;28;20101;-86
2022/09/30 09:19:12;;;;;;;6.57;5.93;;;12.30;99.90;;;;;;5054287;28;20056;-87
2022/09/30 09:21:46;;;;;;;11.25;7.10;;;;;;;;;;5039119;28;20044;-85
2022/09/30 09:24:18;;;;;;;8.90;6.05;;;12.50;99.90;;;;;;5038594;28;20044;-86
2022/09/30 09:26:44;;;;;;;8.07;5.45;;;;;;;;;;5055050;28;20056;-83
2022/09/30 09:29:20;;;;;;;7.22;5.90;;;;;;;;;;5037985;28;20125;-85
2022/09/30 09:31:47;;;;;;;5.78;5.00;;;;;;;;;;5055268;28;20097;-85
2022/09/30 09:34:14;;;;;;;8.45;6.05;;;;;;;;;;5038595;28;20041;-85
2022/09/30 09:37:07;;;;;;;5.25;4.43;;;12.40;99.90;;;;;;5053932;28;20066;-82
2022/09/30 09:39:33;;;;;;;5.75;4.88;;;;;;;;;;5048839;28;20045;-81
2022/09/30 09:42:02;;;;;;;6.18;4.63;;;;;;;;;;5050249;28;20090;-83
2022/09/30 09:44:52;;;;;;;6.45;5.07;;;;;;;;;;5050231;28;20045;-82
2022/09/30 09:47:19;;;;;;;5.90;4.68;;;;;;;;;;4954705;28;20138;-80
2022/09/30 09:49:59;;;;;;;5.63;4.90;;;12.70;99.90;;;;;;4955327;28;20062;-84
2022/09/30 09:52:25;;;;;;;7.72;5.13;;;;;;;;;;4965173;28;20427;-84
2022/09/30 09:54:55;;;;;;;4.95;4.47;;;12.90;99.90;;;;;;4939268;28;20039;-84
2022/09/30 09:57:32;;;;;;;5.07;4.57;;;12.90;99.90;;;;;;4954961;28;20061;-80
2022/09/30 09:59:58;;;;;;;7.00;4.60;;;12.80;99.90;;;;;;4971016;28;20138;-82
2022/09/30 10:02:27;;;;;;;8.25;4.68;;;12.90;99.90;;;;;;4983733;28;20446;-81
2022/09/30 10:05:02;;;;;;;5.20;4.40;;;;;;;;;;4968182;28;20069;-80
2022/09/30 10:07:29;;;;;;;5.13;3.80;;;;;;;;;;4916444;29;20191;-81
2022/09/30 10:10:06;;;;;;;4.32;3.92;;;;;;;;;;4917118;29;20106;-83
2022/09/30 10:12:32;;;;;;;7.28;4.53;;;;;;;;;;4923831;29;20047;-80
2022/09/30 10:14:59;;;;;;;5.18;4.68;;;;;;;;;;4951868;29;20100;-79
2022/09/30 10:17:28;;;;;;;5.20;4.13;;;;;;;;;;4951303;29;20055;-80
2022/09/30 10:20:13;;;;;;;5.15;4.65;;;13.40;99.90;;;;;;4952023;28;20043;-79
2022/09/30 10:22:39;;;;;;;5.80;4.63;;;;;;;;;;4966214;28;20064;-82
2022/09/30 10:25:19;;;;;;;7.65;5.00;;;13.50;99.90;;;;;;5014483;28;20064;-82
2022/09/30 10:28:03;;;;;;;5.07;4.57;;;13.80;99.90;;;;;;5039109;28;20363;-83
2022/09/30 10:31:01;;;;;;;5.38;4.88;;;13.80;99.90;;;;;;5037609;28;20113;-82
2022/09/30 10:33:29;;;;;;;6.60;5.90;;;;;;;;;;5047935;28;20033;-80
2022/09/30 10:36:07;;;;;;;6.93;5.50;;;14.00;99.90;;;;;;5053542;28;20049;-82
2022/09/30 10:38:34;;;;;;;6.82;5.95;;;14.10;99.90;;;;;;5043386;28;20052;-82
2022/09/30 10:41:01;;;;;;;6.70;6.00;;;13.80;99.90;;;;;;5060373;28;20045;-79
2022/09/30 10:43:59;;;;;;;6.78;5.97;;;14.00;99.90;;;;;;5043748;28;20066;-82
2022/09/30 10:46:36;;;;;;;6.90;6.30;;;14.10;99.90;;;;;;4978120;28;20112;-81
2022/09/30 10:49:09;;;;;;;7.55;6.85;;;14.10;99.90;;;;;;4979734;28;20511;-81
2022/09/30 10:51:39;;;;;;;5.47;4.75;;;14.30;99.90;;;;;;4980293;28;20050;-81
2022/09/30 10:54:05;;;;;;;7.35;5.10;;;14.00;99.90;;;;;;4980540;28;20511;-81
2022/09/30 10:56:39;;;;;;;5.10;3.83;;;14.40;99.90;;;;;;4962427;28;20050;-81
2022/09/30 10:59:24;;;;;;;2.67;2.47;;;14.60;99.90;;;;;;4980375;28;20249;-79
2022/09/30 11:01:58;;;;;;;3.72;3.05;;;14.60;99.90;;;;;;4964050;28;20455;-82
2022/09/30 11:05:04;;;;;;;3.15;2.95;;;14.60;99.90;;;;;;4964361;28;20135;-81
2022/09/30 11:07:41;;;;;;;3.85;3.28;;;14.50;99.90;;;;;;4957751;28;20061;-83
2022/09/30 11:10:37;;;;;;;3.83;3.30;;;14.70;99.90;;;;;;4979539;28;20065;-84
2022/09/30 11:13:21;;;;;;;3.20;2.88;;;;;;;;;;4964559;28;20234;-85
2022/09/30 11:16:02;;;;;;;;;;;14.70;99.90;;;;;;4964007;28;20062;-83
2022/09/30 11:18:58;;;;;;;4.65;3.13;;;14.80;99.90;;;;;;4964880;28;20394;-82
2022/09/30 11:21:24;;;;;;;3.30;3.03;;;;;;;;;;4975634;28;20058;-83
2022/09/30 11:24:02;;;;;;;3.75;2.67;;;15.00;99.90;;;;;;5034495;28;20057;-81
2022/09/30 11:27:02;;;;;;;6.13;2.45;;;14.90;99.90;;;;;;5052188;28;20045;-79
2022/09/30 11:29:44;;;;;;;3.83;3.33;;;;;;;;;;4979974;28;20211;-83
2022/09/30 11:32:34;;;;;;;3.75;3.38;;;15.00;99.90;;;;;;4979618;28;20062;-79
2022/09/30 11:35:00;;;;;;;7.50;2.63;;;;;;;;;;4979630;28;20458;-84
2022/09/30 11:38:17;;;;;;;4.05;3.00;;;15.20;99.90;;;;;;4963807;28;20894;-84
2022/09/30 11:41:13;;;;;;;2.65;2.45;;;15.30;99.90;;;;;;4903315;29;20533;-83
2022/09/30 11:43:57;;;;;;;5.00;2.63;;;15.10;99.90;;;;;;4904134;29;20056;-83
2022/09/30 11:46:29;;;;;;;2.45;1.58;;;;;;;;;;4903137;29;20068;-85
2022/09/30 11:49:10;;;;;;;2.08;1.88;;;15.20;99.90;;;;;;4900457;29;20048;-84
2022/09/30 11:51:48;;;;;;;1.90;1.80;;;;;;;;;;4900584;29;20461;-84
2022/09/30 11:54:23;;;;;;;2.65;2.17;;;;;;;;;;4901146;29;20785;-86
2022/09/30 11:56:52;;;;;;;2.85;2.55;;;;;;;;;;4883629;29;20150;-84
2022/09/30 11:59:29;;;;;;;2.10;1.90;;;15.40;99.90;;;;;;4916075;29;20139;-84
2022/09/30 12:01:59;;;;;;;2.85;2.40;;;15.30;99.90;;;;;;4883925;29;20184;-84
2022/09/30 12:04:34;;;;;;;3.88;2.35;;;15.50;99.90;;;;;;4899453;28;20458;-82
2022/09/30 12:07:06;;;;;;;6.15;2.53;;;;;;;;;;4973230;28;20135;-84
2022/09/30 12:09:39;;;;;;;2.10;1.95;;;15.50;99.90;;;;;;4957193;28;20149;-85
2022/09/30 12:12:13;;;;;;;3.65;1.67;;;15.70;99.90;;;;;;4972633;28;20054;-84
2022/09/30 12:14:52;;;;;;;2.53;2.15;;;15.80;99.90;;;;;;4940748;28;20078;-83
2022/09/30 12:17:31;;;;;;;1.88;1.77;;;;;;;;;;5023508;28;20044;-83
2022/09/30 12:20:25;;;;;;;3.05;2.30;;;15.60;99.90;;;;;;5055033;28;20059;-85
2022/09/30 12:22:55;;;;;;;4.53;1.90;;;15.40;99.90;;;;;;5073461;28;20075;-84
2022/09/30 12:25:35;;;;;;;2.17;1.85;;;15.60;99.90;;;;;;5073755;28;20119;-83
2022/09/30 12:31:23;;;;;;;5.78;1.67;;;;;;;;;;5074154;28;20049;-84
2022/09/30 12:34:13;;;;;;;3.33;1.90;;;15.30;99.90;;;;;;5055174;28;20080;-84
2022/09/30 12:37:11;;;;;;;2.10;1.80;;;15.40;99.90;;;;;;5055479;28;20139;-84
2022/09/30 12:39:52;;;;;;;1.88;1.77;;;15.50;99.90;;;;;;4974477;28;20124;-84
2022/09/30 12:42:34;;;;;;;8.80;2.20;;;15.60;99.90;;;;;;4989063;28;20065;-83
2022/09/30 12:45:21;;;;;;;2.35;2.13;;;15.70;99.90;;;;;;4975857;28;20050;-84
2022/09/30 12:47:55;;;;;;;2.00;1.80;;;16.10;99.90;;;;;;4959573;28;20046;-84
2022/09/30 12:50:33;;;;;;;2.05;1.95;;;16.10;99.90;;;;;;4991186;28;20070;-83
2022/09/30 12:53:11;;;;;;;1.73;1.60;;;15.90;99.90;;;;;;4990564;28;20042;-84
2022/09/30 12:55:40;;;;;;;2.20;1.98;;;16.20;99.90;;;;;;4975751;28;20050;-84
2022/09/30 12:58:19;;;;;;;2.10;1.85;;;16.10;99.90;;;;;;4975374;28;20062;-84
2022/09/30 13:01:13;;;;;;;1.73;1.60;;;15.90;99.90;;;;;;4975166;28;20042;-84
2022/09/30 13:03:48;;;;;;;2.03;1.70;;;16.30;99.90;;;;;;4973718;28;20065;-84
2022/09/30 13:06:15;;;;;;;3.30;1.60;;;16.10;99.90;;;;;;4989934;28;20117;-84
2022/09/30 13:08:44;;;;;;;2.95;1.80;;;16.10;99.90;;;;;;5008644;28;20048;-84
2022/09/30 13:11:40;;;;;;;2.75;2.20;;;15.90;99.90;;;;;;4989950;28;20074;-85
2022/09/30 13:14:25;;;;;;;2.97;2.50;;;16.10;99.90;;;;;;4951778;29;20565;-83
2022/09/30 13:16:59;;;;;;;4.72;3.00;;;;;;;;;;4975889;28;20495;-85
2022/09/30 13:19:53;;;;;;;2.70;2.47;;;16.40;99.90;;;;;;4974978;28;20062;-84
2022/09/30 13:22:19;;;;;;;2.72;2.53;;;;;;;;;;4970887;28;20058;-84
2022/09/30 13:24:59;;;;;;;6.57;2.88;;;16.50;99.90;;;;;;4974139;28;20585;-84
2022/09/30 13:27:35;;;;;;;3.17;2.50;;;16.30;99.90;;;;;;4975242;28;20518;-83
2022/09/30 13:30:17;;;;;;;5.55;3.58;;;16.30;99.90;;;;;;4974793;28;20499;-83
2022/09/30 13:33:01;;;;;;;5.28;3.38;;;16.30;99.90;;;;;;4957728;28;20086;-83
2022/09/30 13:35:50;;;;;;;3.65;2.78;;;16.40;99.90;;;;;;4974055;28;20112;-83
2022/09/30 13:38:23;;;;;;;6.03;3.08;;;16.30;99.90;;;;;;4957908;28;20569;-84
2022/09/30 13:40:57;;;;;;;4.40;2.90;;;16.30;99.90;;;;;;4970725;28;20046;-83
2022/09/30 13:43:23;;;;;;;4.22;3.13;;;;;;;;;;4938961;28;20055;-84
2022/09/30 13:45:52;;;;;;;4.68;2.60;;;16.40;99.90;;;;;;4954884;28;20047;-84
2022/09/30 13:48:24;;;;;;;4.13;2.47;;;16.60;99.90;;;;;;4970630;28;20499;-85
2022/09/30 13:50:53;;;;;;;2.45;2.25;;;16.50;99.90;;;;;;5041982;28;20067;-85
2022/09/30 13:53:29;;;;;;;5.88;3.53;;;16.50;99.90;;;;;;5037641;28;20169;-85
2022/09/30 13:55:57;;;;;;;2.85;2.63;;;16.50;99.90;;;;;;5037153;28;20059;-84
2022/09/30 13:58:56;;;;;;;4.75;2.60;;;16.50;99.90;;;;;;5036618;28;20044;-85
2022/09/30 14:01:40;;;;;;;3.28;2.40;;;16.50;99.90;;;;;;5071735;28;20396;-83
2022/09/30 14:04:33;;;;;;;2.90;2.70;;;16.70;99.90;;;;;;5072016;28;20040;-84
2022/09/30 14:07:28;;;;;;;3.42;2.20;;;16.90;99.90;;;;;;5071855;28;20093;-81
2022/09/30 14:10:27;;;;;;;2.67;2.47;;;16.70;99.90;;;;;;5052561;28;20048;-83
2022/09/30 14:13:38;;;;;;;3.13;2.45;;;16.70;99.90;;;;;;5056995;28;20167;-84
2022/09/30 14:16:40;;;;;;;3.42;2.92;;;16.80;99.90;;;;;;4970366;28;20058;-83
2022/09/30 14:19:27;;;;;;;3.50;2.88;;;16.60;99.90;;;;;;4953919;28;20043;-82
2022/09/30 14:22:02;;;;;;;4.10;3.20;;;17.00;99.90;;;;;;4950925;28;20051;-84
2022/09/30 14:24:34;;;;;;;3.05;2.80;;;16.90;99.90;;;;;;4951510;29;20154;-83
2022/09/30 14:27:24;;;;;;;3.60;3.28;;;16.80;99.90;;;;;;4935084;29;20613;-84
2022/09/30 14:30:04;;;;;;;3.90;3.50;;;16.70;99.90;;;;;;4942228;28;20067;-83
2022/09/30 14:32:35;;;;;;;2.92;2.60;;;16.90;99.90;;;;;;4970960;28;20055;-84
2022/09/30 14:35:05;;;;;;;3.50;3.20;;;16.70;99.90;;;;;;4955060;28;20463;-83
2022/09/30 14:37:40;;;;;;;3.83;2.70;;;16.60;99.90;;;;;;4954416;28;20414;-83